Погода Белохвостовона неделю

Витебская область, Белоруссия

24 - 30 мая
  • 24мая
    Сегодня
    +9°
    +22°
    Ясно и безоблачно
    ВремяПогодаТемператураВлажностьДавлениеВетер, м/сВероятность осадков
    00:00Ясно и безоблачно+15°C53 %754 мм3.6 м/с2 %
    03:00Ясно и безоблачно+12°C62 %755 мм3.1 м/с2 %
    06:00Ясно и безоблачно+12°C64 %756 мм3.4 м/с2 %
    09:00Ясно и безоблачно+16°C52 %756 мм3.9 м/с2 %
    12:00Ясно и безоблачно+20°C37 %756 мм4.8 м/с2 %
    15:00Ясно и безоблачно+22°C34 %756 мм4.1 м/с2 %
    18:00Ясно и безоблачно+22°C37 %755 мм3.7 м/с2 %
    21:00Ясно и безоблачно+17°C53 %755 мм2.8 м/с2 %
  • 25мая
    Суббота
    +11°
    +25°
    Ясно и безоблачно
    ВремяПогодаТемператураВлажностьДавлениеВетер, м/сВероятность осадков
    00:00Ясно и безоблачно+13°C58 %755 мм3.1 м/с2 %
    03:00Ясно и безоблачно+11°C65 %755 мм2.4 м/с2 %
    06:00Ясно и безоблачно+11°C69 %755 мм2.4 м/с2 %
    09:00Ясно и безоблачно+17°C58 %755 мм2.2 м/с2 %
    12:00Ясно и безоблачно+22°C45 %755 мм2.2 м/с2 %
    15:00Ясно и безоблачно+24°C39 %754 мм2.1 м/с2 %
    18:00Ясно и безоблачно+24°C39 %753 мм1.7 м/с2 %
    21:00Ясно и безоблачно+22°C48 %752 мм1.0 м/с2 %
  • 26мая
    Воскресенье
    +14°
    +26°
    Облачно с прояснениями
    ВремяПогодаТемператураВлажностьДавлениеВетер, м/сВероятность осадков
    00:00Ясно и безоблачно+17°C64 %753 мм0.6 м/с2 %
    03:00Ясно и безоблачно+12°C82 %752 мм2.4 м/с2 %
    06:00Ясно и безоблачно+13°C83 %753 мм1.5 м/с2 %
    09:00Ясно и безоблачно+20°C60 %753 мм0.5 м/с2 %
    12:00Ясно и безоблачно+24°C38 %753 мм1.4 м/с2 %
    15:00Облачно с прояснениями+26°C34 %752 мм2.1 м/с3 %
    18:00Практически безоблачно+26°C35 %752 мм2.8 м/с7 %
    21:00Ясно и безоблачно+20°C59 %752 мм2.1 м/с3 %
  • 27мая
    Понедельник
    +14°
    +26°
    Облачно с прояснениями
    ВремяПогодаТемператураВлажностьДавлениеВетер, м/сВероятность осадков
    00:00Ясно и безоблачно+17°C71 %753 мм2.6 м/с2 %
    03:00Ясно и безоблачно+15°C88 %753 мм2.0 м/с2 %
    06:00Практически безоблачно+15°C89 %753 мм2.9 м/с3 %
    09:00Ясно и безоблачно+20°C74 %754 мм2.4 м/с2 %
    12:00Практически безоблачно+23°C59 %754 мм2.6 м/с14 %
    15:00Облачно с прояснениями+24°C53 %753 мм2.1 м/с11 %
    18:00Небольшая облачность и лёгкий дождик+25°C56 %753 мм2.8 м/с20 %
    21:00Ясно и безоблачно+20°C73 %753 мм1.7 м/с6 %
Мы используем cookies
Соглашаюсь